Time;durP1;ratioP1;P1;durP2;ratioP2;P2;SDS_P1;SDS_P2;PMS_P1;PMS_P2;Temp;Humidity;BMP_temperature;BMP_pressure;BME280_temperature;BME280_humidity;BME280_pressure;Samples;Min_cycle;Max_cycle;Signal;HPM_P1;HPM_P2
2023/10/19 00:00:33;;;;;;;6.85;3.58;;;;;;;10.75;51.31;99061.06;5000860;28;20039;-82
2023/10/19 00:03:03;;;;;;;5.38;4.00;;;;;;;10.79;50.87;99073.38;4998060;28;20042;-84
2023/10/19 00:05:32;;;;;;;5.88;3.95;;;;;;;10.78;51.51;99066.19;4996666;28;20042;-84
2023/10/19 00:08:05;;;;;;;6.50;3.85;;;;;;;10.80;51.55;99052.34;4997373;28;20053;-84
2023/10/19 00:10:34;;;;;;;5.65;3.92;;;;;;;10.83;51.32;99071.13;5003307;28;20043;-86
2023/10/19 00:13:05;;;;;;;5.15;3.72;;;;;;;10.85;51.74;99058.97;4999700;28;20485;-84
2023/10/19 00:15:34;;;;;;;6.43;3.80;;;;;;;10.84;51.64;99053.66;5000930;28;20046;-83
2023/10/19 00:18:13;;;;;;;5.78;3.90;;;;;;;10.85;51.37;99063.59;5001322;28;20141;-84
2023/10/19 00:20:51;;;;;;;5.63;3.92;;;;;;;10.86;51.28;99055.22;4999167;28;20057;-83
2023/10/19 00:23:25;;;;;;;5.65;3.80;;;;;;;10.87;51.52;99051.44;4998891;28;20077;-83
2023/10/19 00:25:52;;;;;;;5.65;3.88;;;;;;;10.86;51.49;99055.22;4995988;28;20060;-84
2023/10/19 00:28:22;;;;;;;5.20;4.00;;;;;;;10.88;51.49;99047.69;4989168;28;20060;-85
2023/10/19 00:30:53;;;;;;;5.72;3.88;;;;;;;10.89;51.60;99045.78;4996632;28;20517;-85
2023/10/19 00:33:21;;;;;;;5.40;3.80;;;;;;;10.88;51.69;99039.47;5000562;28;20054;-83
2023/10/19 00:35:58;;;;;;;5.03;3.70;;;;;;;10.90;52.13;99037.38;4998553;28;20213;-84
2023/10/19 00:38:39;;;;;;;5.50;4.15;;;;;;;10.87;52.18;99034.16;5003156;28;20138;-85
2023/10/19 00:41:11;;;;;;;5.63;4.30;;;;;;;10.88;51.99;99041.34;5010309;28;20104;-84
2023/10/19 00:43:44;;;;;;;;;;;;;;;10.64;55.25;99046.97;5012231;28;20048;-85
2023/10/19 00:46:21;;;;;;;6.32;3.75;;;;;;;10.83;52.09;99049.22;5006757;28;19933;-85
2023/10/19 00:48:55;;;;;;;6.03;4.20;;;;;;;10.86;52.33;99033.31;4998891;28;20046;-87
2023/10/19 00:51:37;;;;;;;5.45;4.10;;;;;;;10.91;52.43;99039.09;4999313;28;20104;-86
2023/10/19 00:54:10;;;;;;;7.47;4.57;;;;;;;10.89;52.73;99043.06;4998964;28;20050;-86
2023/10/19 00:56:41;;;;;;;6.05;4.13;;;;;;;10.90;52.17;99042.00;4998394;28;20073;-85
2023/10/19 00:59:14;;;;;;;6.35;4.30;;;;;;;10.91;52.55;99030.03;4997008;28;20078;-86
2023/10/19 01:01:45;;;;;;;;;;;;;;;10.69;55.08;99047.25;5001776;28;20054;-86
2023/10/19 01:04:16;;;;;;;5.03;3.88;;;;;;;10.89;52.60;99048.53;4998423;28;19929;-85
2023/10/19 01:06:59;;;;;;;5.55;3.83;;;;;;;10.95;52.39;99054.13;5000329;28;20062;-85
2023/10/19 01:09:28;;;;;;;6.72;4.07;;;;;;;10.95;52.41;99054.13;4991430;28;20533;-85
2023/10/19 01:12:01;;;;;;;5.88;3.90;;;;;;;11.00;52.56;99064.53;4998783;28;20073;-85
2023/10/19 01:14:32;;;;;;;5.80;4.13;;;;;;;11.01;52.69;99055.28;4998227;28;20057;-83
2023/10/19 01:17:02;;;;;;;7.18;4.45;;;;;;;11.02;52.59;99036.97;5014707;28;20057;-85
2023/10/19 01:19:31;;;;;;;6.40;4.40;;;;;;;11.02;52.86;99031.50;5019369;28;20050;-85
2023/10/19 01:22:04;;;;;;;5.90;4.53;;;;;;;11.06;52.78;99046.53;5002754;28;20042;-85
2023/10/19 01:24:40;;;;;;;5.47;4.07;;;;;;;11.07;52.79;99045.47;5003696;28;20125;-85
2023/10/19 01:27:10;;;;;;;6.50;4.30;;;;;;;11.07;53.02;99043.59;5003003;28;20066;-85
2023/10/19 01:29:39;;;;;;;6.45;4.47;;;;;;;11.07;52.83;99043.59;5020532;28;20042;-85
2023/10/19 01:32:08;;;;;;;7.60;4.50;;;;;;;11.11;53.04;99039.47;5007215;28;20042;-85
2023/10/19 01:34:37;;;;;;;6.28;4.55;;;;;;;11.13;53.04;99045.63;5002909;28;20042;-84
2023/10/19 01:37:05;;;;;;;6.68;4.65;;;;;;;11.13;52.88;99037.41;5001942;28;20597;-85
2023/10/19 01:39:36;;;;;;;7.32;4.40;;;;;;;11.15;53.08;99040.81;5000988;28;20058;-85
2023/10/19 01:42:05;;;;;;;6.70;4.72;;;;;;;11.15;53.44;99038.06;5006260;28;20162;-85
2023/10/19 01:44:33;;;;;;;6.45;4.57;;;;;;;11.17;52.94;99032.41;5003685;28;20072;-83
2023/10/19 01:47:01;;;;;;;6.70;4.50;;;;;;;11.18;53.28;99032.22;5006262;28;20049;-84
2023/10/19 01:49:29;;;;;;;6.38;4.30;;;;;;;11.19;53.06;99030.34;5008459;28;20071;-85
2023/10/19 01:51:58;;;;;;;6.50;4.78;;;;;;;11.21;53.22;99031.88;5008759;28;20042;-85
2023/10/19 01:54:25;;;;;;;6.28;4.57;;;;;;;11.20;52.96;99019.22;5008141;28;20489;-85
2023/10/19 01:56:56;;;;;;;6.28;4.70;;;;;;;11.26;53.97;99021.22;5007334;28;20525;-84
2023/10/19 01:59:29;;;;;;;5.93;4.65;;;;;;;11.24;53.18;99017.81;5005412;28;20054;-84
2023/10/19 02:01:57;;;;;;;5.97;4.40;;;;;;;11.24;53.52;99016.94;5009912;28;20050;-84
2023/10/19 02:04:26;;;;;;;7.57;4.40;;;;;;;11.27;53.49;99019.34;5009753;28;20046;-83
2023/10/19 02:06:53;;;;;;;5.95;4.00;;;;;;;11.30;53.49;99014.34;5007851;28;20074;-84
2023/10/19 02:09:26;;;;;;;5.63;4.22;;;;;;;11.29;53.34;99014.53;5008273;28;20058;-85
2023/10/19 02:11:57;;;;;;;5.53;3.95;;;;;;;11.31;54.07;99023.38;5010168;28;20072;-84
2023/10/19 02:14:28;;;;;;;7.57;4.50;;;;;;;11.33;54.03;99004.91;5006646;28;20053;-85
2023/10/19 02:16:58;;;;;;;6.68;4.18;;;;;;;11.36;53.60;99019.09;5013509;28;20046;-84
2023/10/19 02:19:29;;;;;;;7.25;4.15;;;;;;;11.35;53.78;99013.78;5011986;28;20113;-82
2023/10/19 02:21:58;;;;;;;6.43;4.22;;;;;;;11.39;53.82;99020.59;5011230;28;20042;-83
2023/10/19 02:24:28;;;;;;;6.57;4.15;;;;;;;11.39;54.12;99017.84;5021760;28;20139;-85
2023/10/19 02:27:18;;;;;;;5.70;4.15;;;;;;;11.42;55.05;99019.38;4989624;28;20058;-84
2023/10/19 02:30:01;;;;;;;7.80;4.25;;;;;;;11.42;53.71;99016.63;4998857;28;20080;-84
2023/10/19 02:32:29;;;;;;;6.00;4.25;;;;;;;11.42;54.41;99005.69;5001670;28;20070;-85
2023/10/19 02:34:57;;;;;;;5.47;4.15;;;;;;;11.44;54.10;99009.94;5001648;28;20038;-84
2023/10/19 02:37:26;;;;;;;5.97;4.70;;;;;;;11.45;54.44;99008.91;5002411;28;20832;-85
2023/10/19 02:39:53;;;;;;;5.95;4.13;;;;;;;11.48;54.37;99002.19;4998667;28;20084;-85
2023/10/19 02:42:23;;;;;;;5.88;4.30;;;;;;;11.48;54.43;98997.56;4998893;28;20100;-85
2023/10/19 02:44:50;;;;;;;5.20;3.78;;;;;;;11.49;54.30;98995.69;5001214;28;20054;-84
2023/10/19 02:47:18;;;;;;;5.03;3.72;;;;;;;11.52;54.34;98992.56;5003633;28;20049;-84
2023/10/19 02:49:51;;;;;;;6.18;4.15;;;;;;;11.53;54.57;98997.03;4996792;28;20069;-84
2023/10/19 02:52:20;;;;;;;6.95;3.78;;;;;;;11.53;53.99;98999.75;5017021;28;20038;-84
2023/10/19 02:54:48;;;;;;;5.80;3.67;;;;;;;11.57;54.28;98998.34;5001331;28;20113;-84
2023/10/19 02:57:15;;;;;;;5.57;3.60;;;;;;;11.59;54.44;98999.00;4998850;28;21319;-84
2023/10/19 02:59:46;;;;;;;6.28;3.70;;;;;;;11.62;54.85;98993.19;5005149;28;20052;-83
2023/10/19 03:02:16;;;;;;;6.07;3.97;;;;;;;11.62;54.30;98998.69;5007696;28;20134;-84
2023/10/19 03:04:45;;;;;;;5.38;3.83;;;;;;;11.64;54.66;98988.38;5007228;28;20124;-84
2023/10/19 03:07:15;;;;;;;5.55;3.75;;;;;;;11.63;54.59;98984.81;4997017;28;20050;-83
2023/10/19 03:09:48;;;;;;;6.15;4.13;;;;;;;11.64;54.55;98991.09;4998196;28;20034;-84
2023/10/19 03:12:17;;;;;;;6.07;3.70;;;;;;;11.66;54.62;98987.16;5001614;28;20105;-84
2023/10/19 03:14:48;;;;;;;5.47;3.72;;;;;;;11.67;54.86;98977.91;4999314;28;20053;-84
2023/10/19 03:17:15;;;;;;;5.38;3.78;;;;;;;11.70;54.81;98968.47;5000857;28;20051;-82
2023/10/19 03:19:44;;;;;;;5.00;3.65;;;;;;;11.71;54.42;98973.75;5015697;28;20044;-83
2023/10/19 03:22:11;;;;;;;5.82;3.70;;;;;;;11.73;54.62;98968.91;4999682;28;20054;-83
2023/10/19 03:24:40;;;;;;;5.65;3.58;;;;;;;11.75;54.53;98963.25;4999240;28;20057;-83
2023/10/19 03:27:12;;;;;;;5.50;3.70;;;;;;;11.75;55.10;98966.00;4998397;28;20134;-82
2023/10/19 03:29:45;;;;;;;5.32;3.60;;;;;;;11.75;54.63;98963.25;5001021;28;20049;-84
2023/10/19 03:32:16;;;;;;;5.47;3.25;;;;;;;11.80;55.86;98968.19;4999363;28;20128;-83
2023/10/19 03:34:47;;;;;;;5.55;3.35;;;;;;;11.79;55.06;98961.00;4999426;28;20562;-82
2023/10/19 03:37:19;;;;;;;4.40;3.08;;;;;;;11.81;55.00;98962.50;4998693;28;20093;-83
2023/10/19 03:39:47;;;;;;;5.57;3.30;;;;;;;11.82;54.91;98963.34;4997525;28;20046;-82
2023/10/19 03:42:15;;;;;;;5.18;3.45;;;;;;;11.83;54.77;98965.06;4997599;28;20049;-83
2023/10/19 03:44:50;;;;;;;5.03;3.20;;;;;;;11.84;55.08;98956.66;4997708;28;20038;-84
2023/10/19 03:47:20;;;;;;;4.70;3.30;;;;;;;11.84;54.95;98950.31;4999279;28;20046;-84
2023/10/19 03:49:50;;;;;;;4.05;3.30;;;;;;;11.86;55.03;98954.56;5000193;28;20049;-84
2023/10/19 03:52:21;;;;;;;4.57;3.03;;;;;;;11.89;55.11;98956.06;5003150;28;20085;-84
2023/10/19 03:54:50;;;;;;;5.22;3.33;;;;;;;11.90;55.11;98936.69;5012096;28;20104;-83
2023/10/19 03:57:24;;;;;;;5.53;3.65;;;;;;;11.91;55.31;98941.13;5013496;28;20102;-83
2023/10/19 03:59:56;;;;;;;4.82;2.88;;;;;;;11.94;55.38;98940.78;5007493;28;20394;-83
2023/10/19 04:02:29;;;;;;;4.75;3.03;;;;;;;11.93;55.10;98932.72;5000555;28;20606;-83
2023/10/19 04:04:58;;;;;;;6.03;3.28;;;;;;;11.93;55.21;98936.31;4997631;28;20047;-81
2023/10/19 04:07:27;;;;;;;4.25;2.88;;;;;;;11.95;55.25;98934.25;4998080;28;20045;-83
2023/10/19 04:10:09;;;;;;;4.78;3.10;;;;;;;11.99;55.24;98943.78;4993829;28;20062;-82
2023/10/19 04:12:42;;;;;;;4.40;2.90;;;;;;;11.97;55.24;98943.13;4997396;28;20935;-82
2023/10/19 04:15:15;;;;;;;4.70;2.65;;;;;;;11.98;55.48;98939.34;4994952;28;20061;-83
2023/10/19 04:17:46;;;;;;;;;;;;;;;11.74;56.87;98931.41;4995207;28;20070;-84
2023/10/19 04:20:42;;;;;;;5.28;2.58;;;;;;;11.97;55.31;98939.53;4989481;28;21024;-83
2023/10/19 04:23:14;;;;;;;5.30;3.20;;;;;;;11.97;55.20;98932.16;4987374;28;20105;-82
2023/10/19 04:25:45;;;;;;;4.30;2.50;;;;;;;12.03;54.92;98936.03;4986651;28;20058;-82
2023/10/19 04:28:14;;;;;;;4.43;2.90;;;;;;;12.04;55.05;98937.75;4989281;28;20223;-82
2023/10/19 04:30:42;;;;;;;4.65;2.75;;;;;;;12.06;55.48;98938.38;4987723;28;20089;-83
2023/10/19 04:33:16;;;;;;;4.40;2.65;;;;;;;12.07;55.25;98932.72;4990062;28;20050;-83
2023/10/19 04:35:45;;;;;;;5.05;3.13;;;;;;;12.07;55.09;98943.69;4991834;28;20521;-84
2023/10/19 04:38:13;;;;;;;5.07;3.40;;;;;;;12.07;54.93;98938.19;4988322;28;20049;-83
2023/10/19 04:40:41;;;;;;;5.10;3.38;;;;;;;12.11;55.37;98941.41;4991274;28;20747;-83
2023/10/19 04:43:09;;;;;;;5.53;3.83;;;;;;;12.12;55.63;98940.38;4993593;28;20055;-83
2023/10/19 04:45:40;;;;;;;5.25;3.45;;;;;;;12.16;55.86;98938.94;4986322;28;20526;-83
2023/10/19 04:48:09;;;;;;;5.60;3.35;;;;;;;12.13;55.59;98933.00;4986182;28;20038;-83
2023/10/19 04:50:39;;;;;;;5.43;3.53;;;;;;;12.17;55.73;98928.81;4984914;28;20065;-83
2023/10/19 04:53:08;;;;;;;5.85;3.30;;;;;;;12.16;55.25;98930.72;4987175;28;20065;-82
2023/10/19 04:55:36;;;;;;;4.95;3.42;;;;;;;12.18;55.59;98925.91;4984439;28;20045;-83
2023/10/19 04:58:05;;;;;;;6.05;3.60;;;;;;;12.18;55.68;98925.91;4986235;28;20050;-83
2023/10/19 05:00:33;;;;;;;5.22;3.13;;;;;;;12.22;55.40;98923.59;4984751;28;20179;-84
2023/10/19 05:03:01;;;;;;;4.82;2.95;;;;;;;12.23;55.29;98928.91;4987942;28;20885;-83
2023/10/19 05:05:30;;;;;;;5.38;2.97;;;;;;;12.24;55.81;98938.84;4983023;28;20050;-83
2023/10/19 05:07:59;;;;;;;6.00;3.10;;;;;;;12.28;55.37;98948.41;4987044;28;20624;-84
2023/10/19 05:10:27;;;;;;;5.43;3.22;;;;;;;12.28;55.31;98945.66;4986009;28;20057;-84
2023/10/19 05:12:55;;;;;;;5.38;3.17;;;;;;;12.28;55.30;98937.44;4988804;28;20351;-83
2023/10/19 05:15:23;;;;;;;5.40;3.13;;;;;;;12.29;55.46;98941.88;4998804;28;20054;-83
2023/10/19 05:17:54;;;;;;;5.80;3.10;;;;;;;12.31;55.39;98936.16;5003535;28;20103;-84
2023/10/19 05:20:23;;;;;;;6.20;3.72;;;;;;;12.31;55.33;98937.03;4998631;28;20078;-84
2023/10/19 05:22:51;;;;;;;6.72;3.70;;;;;;;12.32;55.63;98937.88;4997137;28;20050;-83
2023/10/19 05:25:23;;;;;;;6.55;3.42;;;;;;;12.36;55.76;98947.44;4999227;28;20078;-83
2023/10/19 05:27:54;;;;;;;4.90;3.30;;;;;;;12.33;55.81;98939.56;5001579;28;20526;-83
2023/10/19 05:30:23;;;;;;;4.88;3.33;;;;;;;12.36;55.13;98939.22;4999615;28;20050;-83
2023/10/19 05:32:52;;;;;;;4.65;3.20;;;;;;;12.37;55.65;98932.69;5009025;28;20050;-83
2023/10/19 05:35:26;;;;;;;6.93;3.38;;;;;;;12.37;55.32;98919.81;5008753;28;20061;-83
2023/10/19 05:37:55;;;;;;;4.82;3.13;;;;;;;12.37;55.41;98936.28;5005089;28;20141;-84
2023/10/19 05:40:29;;;;;;;4.80;3.25;;;;;;;12.38;55.79;98932.47;4998970;28;20062;-84
2023/10/19 05:43:00;;;;;;;5.45;3.03;;;;;;;12.39;55.29;98938.81;4996699;28;20267;-84
2023/10/19 05:45:28;;;;;;;5.53;3.30;;;;;;;12.41;55.83;98943.06;4996140;28;20050;-83
2023/10/19 05:47:58;;;;;;;5.07;3.10;;;;;;;12.44;55.48;98952.81;4994717;28;20768;-83
2023/10/19 05:50:28;;;;;;;6.07;3.28;;;;;;;12.42;55.77;98949.41;4996210;28;20056;-83
2023/10/19 05:52:56;;;;;;;4.40;2.80;;;;;;;12.44;55.74;98952.81;4994005;28;20058;-84
2023/10/19 05:55:25;;;;;;;4.40;2.90;;;;;;;12.47;55.95;98953.25;4995637;28;20062;-84
2023/10/19 05:57:53;;;;;;;5.22;2.75;;;;;;;12.45;55.60;98936.16;4997389;28;20076;-83
2023/10/19 06:00:25;;;;;;;4.78;2.83;;;;;;;12.48;55.93;98943.13;4997323;28;20073;-83
2023/10/19 06:02:53;;;;;;;5.70;2.70;;;;;;;12.48;56.11;98957.72;4999728;28;20099;-83
2023/10/19 06:05:21;;;;;;;4.78;2.63;;;;;;;12.51;55.63;98959.22;4994794;28;20049;-83
2023/10/19 06:07:50;;;;;;;3.75;2.75;;;;;;;12.49;55.75;98948.44;4993089;28;20470;-83
2023/10/19 06:10:20;;;;;;;4.03;2.60;;;;;;;12.55;55.60;98962.41;4992519;28;20145;-83
2023/10/19 06:12:51;;;;;;;5.15;2.80;;;;;;;12.55;55.87;98960.53;4993586;28;20659;-83
2023/10/19 06:15:22;;;;;;;4.28;2.65;;;;;;;12.55;55.71;98963.25;4991224;28;20418;-83
2023/10/19 06:17:50;;;;;;;3.90;2.47;;;;;;;12.58;55.87;98971.13;4991432;28;20049;-83
2023/10/19 06:20:24;;;;;;;4.85;2.72;;;;;;;12.57;55.75;98972.16;4991497;28;20045;-83
2023/10/19 06:22:53;;;;;;;3.70;2.45;;;;;;;12.60;56.13;98963.56;4991915;28;20050;-83
2023/10/19 06:25:22;;;;;;;3.92;2.28;;;;;;;12.60;56.02;98973.69;4988732;28;20042;-83
2023/10/19 06:27:52;;;;;;;4.35;2.63;;;;;;;12.61;55.78;98975.38;4988648;28;20133;-83
2023/10/19 06:30:22;;;;;;;4.10;2.58;;;;;;;12.61;55.93;98986.38;4989352;28;20050;-83
2023/10/19 06:32:53;;;;;;;3.58;2.47;;;;;;;12.64;55.84;98980.50;4992842;28;20050;-83
2023/10/19 06:35:22;;;;;;;4.30;2.55;;;;;;;12.65;55.67;98987.69;4990659;28;20057;-82
2023/10/19 06:37:50;;;;;;;4.20;2.60;;;;;;;12.64;55.98;98984.09;4994386;28;20041;-83
2023/10/19 06:40:19;;;;;;;3.85;2.58;;;;;;;12.65;55.69;98979.47;4994528;28;20082;-82
2023/10/19 06:42:47;;;;;;;4.63;2.70;;;;;;;12.64;55.67;98978.59;4989207;28;20330;-82
2023/10/19 06:45:19;;;;;;;5.15;2.70;;;;;;;12.69;56.31;98989.88;4986602;28;20054;-81
2023/10/19 06:47:49;;;;;;;4.68;2.65;;;;;;;12.69;55.93;98989.03;4994451;28;20100;-83
2023/10/19 06:50:19;;;;;;;4.95;2.60;;;;;;;12.70;55.74;98977.00;5003039;28;20056;-83
2023/10/19 06:52:48;;;;;;;6.55;3.30;;;;;;;12.69;55.90;98973.41;5001375;28;20184;-83
2023/10/19 06:55:19;;;;;;;4.35;2.53;;;;;;;12.70;56.12;98988.84;4996432;28;20056;-82
2023/10/19 06:57:49;;;;;;;4.53;2.70;;;;;;;12.72;55.85;98977.63;4996675;28;20121;-83
2023/10/19 07:00:20;;;;;;;4.88;2.60;;;;;;;12.74;56.38;98973.66;4996435;28;20056;-83
2023/10/19 07:02:50;;;;;;;4.93;2.50;;;;;;;12.74;55.83;98973.66;4997185;28;20098;-83
2023/10/19 07:05:21;;;;;;;5.05;2.80;;;;;;;12.74;55.76;98968.16;4997792;28;20402;-82
2023/10/19 07:07:51;;;;;;;4.30;2.70;;;;;;;12.75;56.13;98978.13;5000080;28;20054;-83
2023/10/19 07:10:20;;;;;;;4.78;2.72;;;;;;;12.75;56.24;98975.38;5008430;28;20077;-83
2023/10/19 07:12:49;;;;;;;3.88;2.50;;;;;;;12.79;56.31;98986.78;5013245;28;20163;-83
2023/10/19 07:15:19;;;;;;;4.22;2.70;;;;;;;12.80;56.08;98980.25;5014415;28;20113;-83
2023/10/19 07:17:48;;;;;;;3.95;2.60;;;;;;;12.79;55.89;98976.66;5002068;28;20175;-83
2023/10/19 07:20:25;;;;;;;4.65;3.03;;;;;;;12.82;56.21;98984.53;4993049;28;20072;-83
2023/10/19 07:22:53;;;;;;;5.15;2.70;;;;;;;12.82;56.44;98995.50;4983133;28;20434;-82
2023/10/19 07:25:22;;;;;;;4.47;2.50;;;;;;;12.83;56.01;98988.97;4988448;28;20054;-82
2023/10/19 07:27:50;;;;;;;5.40;2.67;;;;;;;12.85;56.32;98992.38;4992501;28;20046;-83
2023/10/19 07:30:22;;;;;;;4.82;2.90;;;;;;;12.89;56.57;98990.06;4991077;28;20064;-84
2023/10/19 07:32:54;;;;;;;6.28;3.20;;;;;;;12.87;56.47;98987.53;4988429;28;20050;-84
2023/10/19 07:35:25;;;;;;;4.22;2.75;;;;;;;12.90;56.61;98990.94;4987733;28;20050;-84
2023/10/19 07:37:53;;;;;;;4.30;2.95;;;;;;;12.90;56.10;98989.03;5006430;28;20069;-84
2023/10/19 07:40:23;;;;;;;4.85;2.83;;;;;;;12.92;56.02;98986.09;4988704;28;20053;-84
2023/10/19 07:42:54;;;;;;;5.28;3.05;;;;;;;12.95;56.29;98996.72;4993366;28;20494;-84
2023/10/19 07:45:25;;;;;;;4.60;2.88;;;;;;;12.96;56.50;98981.91;4988128;28;20053;-84
2023/10/19 07:47:53;;;;;;;5.20;3.03;;;;;;;12.98;56.29;98993.56;4988223;28;20069;-84
2023/10/19 07:50:22;;;;;;;5.07;2.88;;;;;;;12.98;56.35;98988.06;4988005;28;20079;-84
2023/10/19 07:52:52;;;;;;;4.85;2.88;;;;;;;13.01;56.52;98988.53;4987831;28;20081;-83
2023/10/19 07:55:22;;;;;;;4.50;2.88;;;;;;;13.01;56.70;98988.53;5005581;28;20576;-83
2023/10/19 07:57:51;;;;;;;4.95;3.10;;;;;;;13.03;56.79;98989.19;4992253;28;20103;-84
2023/10/19 08:00:21;;;;;;;4.70;3.22;;;;;;;13.06;56.49;98985.19;4986325;28;20538;-85
2023/10/19 08:02:51;;;;;;;5.72;3.40;;;;;;;13.07;56.49;98984.16;4989748;28;20060;-84
2023/10/19 08:05:19;;;;;;;6.05;3.10;;;;;;;13.08;56.82;98975.72;4986640;28;20051;-84
2023/10/19 08:07:47;;;;;;;5.80;3.45;;;;;;;13.11;56.40;98979.97;4989984;28;20061;-83
2023/10/19 08:10:18;;;;;;;5.40;3.30;;;;;;;13.14;56.67;98987.81;4991068;28;20058;-85
2023/10/19 08:12:47;;;;;;;5.00;3.40;;;;;;;13.14;56.86;98980.41;4991164;28;20049;-84
2023/10/19 08:15:17;;;;;;;5.22;3.10;;;;;;;13.17;57.22;98976.44;4989833;28;20062;-85
2023/10/19 08:17:48;;;;;;;4.78;3.20;;;;;;;13.20;57.02;98985.13;4991914;28;20061;-85
2023/10/19 08:20:22;;;;;;;4.97;3.28;;;;;;;13.24;57.40;98986.44;4989499;28;20050;-85
2023/10/19 08:22:52;;;;;;;4.95;3.30;;;;;;;13.27;57.62;98965.13;4986796;28;20054;-84
2023/10/19 08:25:20;;;;;;;5.07;3.38;;;;;;;13.31;57.61;98970.00;4989396;28;20057;-84
2023/10/19 08:27:51;;;;;;;4.20;2.88;;;;;;;13.35;57.37;98974.06;4989703;28;20065;-84
2023/10/19 08:30:20;;;;;;;4.68;3.17;;;;;;;13.39;57.36;98980.00;4985261;28;20435;-84
2023/10/19 08:32:52;;;;;;;;;;;;;;;13.16;59.01;98971.97;4989290;28;20058;-85
2023/10/19 08:35:25;;;;;;;6.00;3.15;;;;;;;13.43;57.32;98962.94;4988150;28;19930;-85
2023/10/19 08:37:54;;;;;;;4.30;2.90;;;;;;;13.49;57.00;98964.88;4992499;28;20058;-84
2023/10/19 08:40:23;;;;;;;5.13;3.13;;;;;;;13.56;57.22;98964.94;4989615;28;20068;-85
2023/10/19 08:42:51;;;;;;;5.85;3.47;;;;;;;13.59;57.50;98954.44;4987913;28;20053;-85
2023/10/19 08:45:21;;;;;;;4.43;3.10;;;;;;;13.65;57.04;98968.41;4993697;28;20042;-84
2023/10/19 08:47:56;;;;;;;4.50;2.75;;;;;;;13.69;57.84;98972.47;4993607;28;20052;-84
2023/10/19 08:50:28;;;;;;;4.07;2.95;;;;;;;13.73;57.14;98965.50;5005719;28;20069;-84
2023/10/19 08:52:58;;;;;;;4.50;2.95;;;;;;;13.74;57.23;98956.22;5002136;28;20048;-84
2023/10/19 08:55:27;;;;;;;4.55;3.13;;;;;;;13.77;57.15;98964.06;4995463;28;20050;-84
2023/10/19 08:58:16;;;;;;;4.82;2.80;;;;;;;13.80;57.06;98959.00;4986753;28;20211;-85
2023/10/19 09:00:48;;;;;;;4.18;2.40;;;;;;;13.86;56.79;98962.88;4987113;28;20572;-85
2023/10/19 09:03:17;;;;;;;4.13;2.67;;;;;;;13.85;56.80;98963.91;4992443;28;20081;-84
2023/10/19 09:05:47;;;;;;;6.47;2.72;;;;;;;13.91;57.25;98960.34;4990998;28;20414;-85
2023/10/19 09:08:18;;;;;;;4.05;2.85;;;;;;;13.93;56.80;98958.25;4990234;28;20050;-85
2023/10/19 09:10:47;;;;;;;5.10;2.70;;;;;;;13.94;56.87;98962.72;4988468;28;20266;-85
2023/10/19 09:13:18;;;;;;;5.57;2.85;;;;;;;13.96;57.24;98955.06;4988876;28;20494;-84
2023/10/19 09:15:48;;;;;;;6.47;2.92;;;;;;;13.98;57.16;98948.34;4991203;28;20054;-85
2023/10/19 09:18:18;;;;;;;4.25;2.80;;;;;;;14.02;57.21;98943.28;4988173;28;20057;-84
2023/10/19 09:21:07;;;;;;;4.63;2.70;;;;;;;14.06;57.06;98940.97;4990751;28;20054;-84
2023/10/19 09:23:36;;;;;;;5.57;3.00;;;;;;;14.08;57.75;98934.22;4989454;28;20382;-84
2023/10/19 09:26:07;;;;;;;4.68;2.95;;;;;;;14.13;57.87;98934.44;4988053;28;20068;-85
2023/10/19 09:28:36;;;;;;;5.72;3.25;;;;;;;14.17;58.08;98930.25;4992089;28;20526;-84
2023/10/19 09:31:05;;;;;;;5.80;3.40;;;;;;;14.22;57.87;98927.72;4987710;28;20687;-85
2023/10/19 09:33:34;;;;;;;5.28;3.00;;;;;;;14.29;57.78;98933.25;5006805;28;20077;-85
2023/10/19 09:36:12;;;;;;;5.32;3.20;;;;;;;14.36;57.84;98921.19;4987382;28;20066;-84
2023/10/19 09:38:48;;;;;;;4.65;2.67;;;;;;;14.46;57.64;98919.97;4986711;28;20536;-84
2023/10/19 09:41:18;;;;;;;5.32;2.92;;;;;;;14.50;57.72;98913.91;4986842;28;20096;-84
2023/10/19 09:43:48;;;;;;;5.68;2.58;;;;;;;14.59;57.17;98920.06;4990564;28;20060;-85
2023/10/19 09:46:22;;;;;;;4.05;2.63;;;;;;;14.67;57.22;98926.22;4987388;28;20058;-84
2023/10/19 09:48:51;;;;;;;4.93;2.55;;;;;;;14.71;57.40;98923.91;4989212;28;20069;-84
2023/10/19 09:51:22;;;;;;;7.22;2.75;;;;;;;14.79;57.47;98923.69;5006009;28;20478;-84
2023/10/19 09:53:58;;;;;;;5.82;2.72;;;;;;;14.87;57.57;98923.50;4990549;28;20050;-85
2023/10/19 09:56:33;;;;;;;4.63;2.40;;;;;;;14.93;57.55;98908.06;4993230;28;20100;-84
2023/10/19 09:59:06;;;;;;;5.55;2.60;;;;;;;15.02;57.84;98895.75;4987751;28;20113;-85
2023/10/19 10:02:08;;;;;;;4.63;2.30;;;;;;;15.08;57.11;98898.53;4990038;28;20058;-84
2023/10/19 10:04:36;;;;;;;3.70;1.98;;;;;;;15.17;57.30;98903.84;4986901;28;20059;-84
2023/10/19 10:07:09;;;;;;;4.65;1.85;;;;;;;15.29;57.11;98905.75;5002291;28;20116;-83
2023/10/19 10:09:43;;;;;;;5.38;2.08;;;;;;;15.40;57.21;98912.56;4987346;28;20050;-84
2023/10/19 10:12:18;;;;;;;;;;;;;;;15.20;57.38;98903.41;5010929;28;20058;-83
2023/10/19 10:14:57;;;;;;;4.72;1.30;;;;;;;15.58;56.19;98909.16;4992292;28;19955;-86
2023/10/19 10:17:26;;;;;;;3.78;1.63;;;;;;;15.68;56.60;98909.53;4993804;28;20533;-84
2023/10/19 10:19:57;;;;;;;4.10;1.40;;;;;;;15.78;56.05;98905.28;4991958;28;20054;-83
2023/10/19 10:22:27;;;;;;;2.85;1.20;;;;;;;15.85;55.17;98903.34;4991958;28;20058;-85
2023/10/19 10:24:56;;;;;;;3.63;1.50;;;;;;;15.93;55.48;98898.66;4990770;28;20065;-85
2023/10/19 10:27:25;;;;;;;4.38;1.70;;;;;;;15.97;54.93;98897.19;5004132;28;20073;-85
2023/10/19 10:29:58;;;;;;;5.35;1.70;;;;;;;16.05;54.94;98896.94;5008981;28;20049;-84
2023/10/19 10:32:47;;;;;;;3.97;1.23;;;;;;;16.06;54.00;98893.97;5011667;28;20053;-84
2023/10/19 10:35:53;;;;;;;3.40;1.60;;;;;;;16.11;53.70;98904.34;4993208;28;20050;-86
2023/10/19 10:38:23;;;;;;;2.42;1.17;;;;;;;16.13;54.12;98905.84;4990946;28;20378;-85
2023/10/19 10:40:51;;;;;;;3.45;1.30;;;;;;;16.17;54.06;98909.03;4986950;28;20049;-85
2023/10/19 10:43:21;;;;;;;2.30;1.10;;;;;;;16.22;53.97;98906.47;4993165;28;20081;-86
2023/10/19 10:45:49;;;;;;;4.07;1.60;;;;;;;16.24;53.63;98904.34;4995917;28;20142;-85
2023/10/19 10:48:20;;;;;;;3.10;1.60;;;;;;;16.29;53.79;98901.75;4990996;28;20042;-85
2023/10/19 10:50:49;;;;;;;3.10;1.60;;;;;;;16.26;53.59;98896.66;4987897;28;20050;-86
2023/10/19 10:53:18;;;;;;;2.58;1.30;;;;;;;16.31;53.45;98902.41;4987996;28;20181;-86
2023/10/19 10:55:48;;;;;;;5.95;1.40;;;;;;;16.33;53.53;98894.72;4988691;28;20050;-86
2023/10/19 10:58:16;;;;;;;3.53;1.40;;;;;;;16.35;53.15;98909.16;4990776;28;20116;-86
2023/10/19 11:00:46;;;;;;;4.45;1.50;;;;;;;16.34;53.19;98898.34;4995989;28;20046;-88
2023/10/19 11:03:16;;;;;;;3.80;1.40;;;;;;;16.35;52.71;98897.28;4998844;28;20125;-89
2023/10/19 11:05:46;;;;;;;3.97;1.20;;;;;;;16.36;53.13;98885.16;4995940;28;20096;-88
2023/10/19 11:08:16;;;;;;;3.50;1.30;;;;;;;16.36;52.79;98880.50;4994100;28;20061;-88
2023/10/19 11:10:46;;;;;;;3.72;1.25;;;;;;;16.36;52.69;98869.44;4996020;28;20185;-87
2023/10/19 11:13:18;;;;;;;4.53;1.60;;;;;;;16.40;52.45;98864.34;5000983;28;20058;-88
2023/10/19 11:15:51;;;;;;;4.10;1.30;;;;;;;16.40;52.47;98865.19;4998343;28;20375;-88
2023/10/19 11:18:35;;;;;;;2.58;1.20;;;;;;;16.41;52.19;98857.75;4993514;28;20053;-90
2023/10/19 11:21:15;;;;;;;4.22;1.33;;;;;;;16.37;52.67;98859.25;4983877;28;20053;-84
2023/10/19 11:23:45;;;;;;;1.75;1.10;;;;;;;16.39;52.51;98848.84;4987677;28;20107;-86
2023/10/19 11:26:14;;;;;;;3.38;1.20;;;;;;;16.43;52.60;98850.94;4987281;28;20077;-86
2023/10/19 11:28:47;;;;;;;5.28;1.45;;;;;;;16.43;52.28;98836.28;4988697;28;20865;-85
2023/10/19 11:31:17;;;;;;;4.75;1.80;;;;;;;16.45;52.03;98840.53;4987718;28;20140;-86
2023/10/19 11:33:48;;;;;;;3.08;1.30;;;;;;;16.47;51.85;98843.91;4989377;28;20054;-86
2023/10/19 11:36:18;;;;;;;4.93;1.50;;;;;;;16.49;52.24;98841.78;4988889;28;20050;-87
2023/10/19 11:38:47;;;;;;;3.67;1.27;;;;;;;16.51;51.79;98831.34;4984873;28;20466;-86
2023/10/19 11:41:17;;;;;;;2.65;1.35;;;;;;;16.54;51.73;98832.81;4986720;28;20069;-86
2023/10/19 11:43:48;;;;;;;4.50;1.50;;;;;;;16.56;51.70;98830.69;4989966;28;20117;-86
2023/10/19 11:46:18;;;;;;;4.47;1.48;;;;;;;16.57;51.48;98838.75;4988130;28;20050;-85
2023/10/19 11:48:46;;;;;;;4.45;1.40;;;;;;;16.57;51.48;98830.47;4992844;28;20080;-86
2023/10/19 11:51:15;;;;;;;3.70;1.20;;;;;;;16.58;51.34;98823.84;4988121;28;20050;-86